createdAt,value
2018-03-16T00:00:08.373Z,9.32
2018-03-16T00:06:09.191Z,6.7
2018-03-16T00:10:09.861Z,6.58
2018-03-16T00:12:10.528Z,5.14
2018-03-16T00:16:11.293Z,5.1
2018-03-16T00:22:12.025Z,4.42
2018-03-16T00:26:12.818Z,5.62
2018-03-16T00:32:13.704Z,3.85
2018-03-16T00:36:14.393Z,3.47
2018-03-16T00:38:15.185Z,2.75
2018-03-16T00:42:15.960Z,2.66
2018-03-16T00:48:16.655Z,4.26
2018-03-16T00:52:17.484Z,3.37
2018-03-16T00:58:18.323Z,4.95
2018-03-16T01:02:19.161Z,3.58
2018-03-16T01:04:19.874Z,4.07
2018-03-16T01:08:20.865Z,5.04
2018-03-16T01:14:21.761Z,4.13
2018-03-16T01:18:22.698Z,4.44
2018-03-16T01:24:23.569Z,4.53
2018-03-16T01:28:24.378Z,3.23
2018-03-16T01:30:25.921Z,4.87
2018-03-16T01:34:26.659Z,6.02
2018-03-16T01:40:27.398Z,3.94
2018-03-16T01:44:28.274Z,3.34
2018-03-16T01:50:29.017Z,5.05
2018-03-16T01:54:29.844Z,4.48
2018-03-16T01:56:30.499Z,3.78
2018-03-16T02:00:32.021Z,4.08
2018-03-16T02:06:32.784Z,9.08
2018-03-16T02:10:33.675Z,5.16
2018-03-16T02:16:34.482Z,5.64
2018-03-16T02:20:35.225Z,4.6
2018-03-16T02:26:35.956Z,5.19
2018-03-16T02:32:36.806Z,5.87
2018-03-16T02:36:37.554Z,6.33
2018-03-16T02:42:38.275Z,6.66
2018-03-16T02:46:39.283Z,6.77
2018-03-16T02:48:39.904Z,7.3
2018-03-16T02:52:40.667Z,7.06
2018-03-16T02:58:41.385Z,6.51
2018-03-16T03:02:42.139Z,7.53
2018-03-16T03:08:43.016Z,5.94
2018-03-16T03:12:43.703Z,6.49
2018-03-16T03:14:44.382Z,6.63
2018-03-16T03:18:45.317Z,7.87
2018-03-16T03:24:46.178Z,7.2
2018-03-16T03:28:47.063Z,6.32
2018-03-16T03:34:47.836Z,8.68
2018-03-16T03:38:48.752Z,8.66
2018-03-16T03:40:49.463Z,7.73
2018-03-16T03:44:50.151Z,6.66
2018-03-16T03:50:51.024Z,7.69
2018-03-16T03:54:51.749Z,7.46
2018-03-16T04:00:52.806Z,6.81
2018-03-16T04:04:53.498Z,7.17
2018-03-16T04:06:54.181Z,9.4
2018-03-16T04:10:54.933Z,6.66
2018-03-16T04:16:55.705Z,6.96
2018-03-16T04:20:56.520Z,8.72
2018-03-16T04:26:57.291Z,8.31
2018-03-16T04:30:58.016Z,7.97
2018-03-16T04:32:58.716Z,9.3
2018-03-16T04:36:59.755Z,7.38
2018-03-16T04:43:00.486Z,10.73
2018-03-16T04:47:01.425Z,7.85
2018-03-16T04:53:02.120Z,8.55
2018-03-16T04:57:03.113Z,6.31
2018-03-16T04:59:03.852Z,7.99
2018-03-16T05:03:04.729Z,9.58
2018-03-16T05:09:05.547Z,8.47
2018-03-16T05:13:06.323Z,9.27
2018-03-16T05:19:07.128Z,9.84
2018-03-16T05:23:07.984Z,9.7
2018-03-16T05:25:08.822Z,6.81
2018-03-16T05:29:09.713Z,9.44
2018-03-16T05:35:10.391Z,8.63
2018-03-16T05:39:11.177Z,9.4
2018-03-16T05:45:12.185Z,8.37
2018-03-16T05:49:12.966Z,8.64
2018-03-16T05:55:13.814Z,9.17
2018-03-16T06:01:14.637Z,9.59
2018-03-16T06:05:15.347Z,10.83
2018-03-16T06:11:16.201Z,11.4
2018-03-16T06:15:17.253Z,9.76
2018-03-16T06:17:18.000Z,9.76
2018-03-16T06:21:18.781Z,10.23
2018-03-16T06:27:19.475Z,7.6
2018-03-16T06:31:20.303Z,8.42
2018-03-16T06:37:21.035Z,8.61
2018-03-16T06:41:21.866Z,8
2018-03-16T06:43:22.644Z,7.42
2018-03-16T06:47:23.375Z,8.22
2018-03-16T06:53:24.230Z,9.9
2018-03-16T06:57:25.089Z,11.03
2018-03-16T07:03:25.942Z,8.69
2018-03-16T07:07:26.722Z,11.29
2018-03-16T07:09:27.675Z,9.38
2018-03-16T07:13:28.427Z,8.85
2018-03-16T07:19:29.222Z,10
2018-03-16T07:23:30.039Z,8.02
2018-03-16T07:29:30.873Z,9.28
2018-03-16T07:33:31.678Z,9.93
2018-03-16T07:35:32.364Z,10.19
2018-03-16T07:39:33.173Z,8.25
2018-03-16T07:45:34.020Z,8.4
2018-03-16T07:49:34.871Z,7.97
2018-03-16T07:55:35.712Z,9.97
2018-03-16T07:59:36.422Z,9.51
2018-03-16T08:01:37.181Z,12.33
2018-03-16T08:05:37.896Z,8.06
2018-03-16T08:11:38.677Z,9.37
2018-03-16T08:15:39.389Z,8.3
2018-03-16T08:21:40.283Z,10.9
2018-03-16T08:25:41.027Z,10.52
2018-03-16T08:27:41.796Z,17.93
2018-03-16T08:31:42.812Z,13.92
2018-03-16T08:37:43.667Z,21.39
2018-03-16T08:41:45.269Z,18.32
2018-03-16T08:47:46.267Z,11.51
2018-03-16T08:51:47.015Z,11.38
2018-03-16T08:57:47.739Z,9.48
2018-03-16T09:03:48.525Z,10.62
2018-03-16T09:07:49.388Z,10.56
2018-03-16T09:13:50.158Z,10.78
2018-03-16T09:17:51.050Z,11.23
2018-03-16T09:19:51.724Z,13.26
2018-03-16T09:23:52.778Z,11.75
2018-03-16T09:29:53.619Z,12.99
2018-03-16T09:33:54.318Z,12.4
2018-03-16T09:39:55.051Z,14.3
2018-03-16T09:43:55.947Z,12.14
2018-03-16T09:45:56.801Z,15.23
2018-03-16T09:49:57.645Z,14.42
2018-03-16T09:55:58.419Z,16.08
2018-03-16T09:59:59.206Z,16.05
2018-03-16T10:05:59.936Z,14.09
2018-03-16T10:10:00.743Z,13.51
2018-03-16T10:12:01.590Z,13.09
2018-03-16T10:16:02.351Z,16.5
2018-03-16T10:22:03.171Z,14.91
2018-03-16T10:26:03.999Z,15.7
2018-03-16T10:32:04.809Z,15.5
2018-03-16T10:36:05.705Z,12.26
2018-03-16T10:38:06.305Z,13.87
2018-03-16T10:42:07.053Z,11.92
2018-03-16T10:48:07.799Z,15.14
2018-03-16T10:52:08.765Z,14.48
2018-03-16T10:58:09.675Z,15.77
2018-03-16T11:02:10.398Z,17.69
2018-03-16T11:04:11.137Z,12.56
2018-03-16T11:08:11.928Z,13.48
2018-03-16T11:14:12.861Z,11.37
2018-03-16T11:18:13.631Z,11.44
2018-03-16T11:24:14.493Z,13.98
2018-03-16T11:28:15.262Z,9.93
2018-03-16T11:30:16.236Z,11.46
2018-03-16T11:34:17.107Z,11.1
2018-03-16T11:40:17.898Z,11.98
2018-03-16T11:44:18.823Z,12.56
2018-03-16T11:50:19.704Z,20.06
2018-03-16T11:54:20.381Z,14.25
2018-03-16T11:56:21.160Z,12.95
2018-03-16T12:00:22.492Z,12.05
2018-03-16T12:06:23.412Z,16.33
2018-03-16T12:10:24.149Z,13.63
2018-03-16T12:16:25.119Z,12.69
2018-03-16T12:20:25.893Z,12.41
2018-03-16T12:22:26.671Z,13.08
2018-03-16T12:26:27.490Z,14.3
2018-03-16T12:32:28.156Z,11.99
2018-03-16T12:36:28.874Z,11.97
2018-03-16T12:46:30.411Z,9.23
2018-03-16T12:48:31.269Z,7.85
2018-03-16T12:52:32.026Z,5.55
2018-03-16T12:58:32.789Z,8.51
2018-03-16T13:02:33.606Z,7.36
2018-03-16T13:08:34.457Z,10.06
2018-03-16T13:12:35.294Z,7.19
2018-03-16T13:14:36.028Z,8.42
2018-03-16T13:18:36.894Z,11.76
2018-03-16T13:24:37.706Z,9.2
2018-03-16T13:28:38.621Z,10.96
2018-03-16T13:34:39.492Z,13.64
2018-03-16T13:38:40.354Z,9.06
2018-03-16T13:40:41.156Z,15.82
2018-03-16T13:44:42.140Z,11.17
2018-03-16T13:50:42.990Z,10.06
2018-03-16T13:54:43.759Z,10.57
2018-03-16T14:00:44.606Z,10.47
2018-03-16T14:04:45.377Z,9.75
2018-03-16T14:06:45.972Z,10.98
2018-03-16T14:10:46.708Z,11.66
2018-03-16T14:16:47.603Z,11.88
2018-03-16T14:20:48.384Z,11.26
2018-03-16T14:26:49.160Z,8.14
2018-03-16T14:30:50.019Z,7.98
2018-03-16T14:32:50.694Z,8.44
2018-03-16T14:36:51.469Z,9.86
2018-03-16T14:42:52.198Z,10.46
2018-03-16T14:46:52.998Z,13.16
2018-03-16T14:52:53.634Z,14.7
2018-03-16T14:56:54.454Z,11.42
2018-03-16T14:58:55.098Z,9.76
2018-03-16T15:02:55.872Z,10.18
2018-03-16T15:08:56.773Z,12.83
2018-03-16T15:12:57.473Z,13.47
2018-03-16T15:18:58.176Z,12.17
2018-03-16T15:22:58.876Z,11.33
2018-03-16T15:24:59.577Z,14.16
2018-03-16T15:29:00.374Z,12.29
2018-03-16T15:35:01.121Z,11.49
2018-03-16T15:39:01.912Z,11.68
2018-03-16T15:45:02.599Z,14.83
2018-03-16T15:49:03.388Z,13.55
2018-03-16T15:51:04.132Z,15.29
2018-03-16T15:55:04.887Z,14.97
2018-03-16T16:01:05.688Z,15.05
2018-03-16T16:05:06.495Z,14.64
2018-03-16T16:11:07.295Z,16.41
2018-03-16T16:15:08.819Z,17.92
2018-03-16T16:17:09.522Z,14.32
2018-03-16T16:21:10.335Z,17.56
2018-03-16T16:27:11.090Z,13.85
2018-03-16T16:31:12.028Z,14.54
2018-03-16T16:37:12.822Z,18.06
2018-03-16T16:41:13.577Z,16.86
2018-03-16T16:43:14.330Z,23.36
2018-03-16T16:47:15.023Z,16.43
2018-03-16T16:53:15.825Z,17.38
2018-03-16T16:57:16.531Z,16.16
2018-03-16T17:03:17.258Z,17.84
2018-03-16T17:07:18.124Z,15.17
2018-03-16T17:09:18.806Z,16.94
2018-03-16T17:13:19.591Z,18.62
2018-03-16T17:19:20.367Z,16.17
2018-03-16T17:23:21.259Z,20.82
2018-03-16T17:29:22.003Z,22.05
2018-03-16T17:33:22.835Z,19.27
2018-03-16T17:35:23.652Z,18.11
2018-03-16T17:39:24.321Z,22.15
2018-03-16T17:45:25.648Z,20.51
2018-03-16T17:49:26.510Z,20.3
2018-03-16T17:55:27.181Z,20.43
2018-03-16T17:59:28.110Z,17.55
2018-03-16T18:01:28.877Z,14
2018-03-16T18:05:29.817Z,16.91
2018-03-16T18:11:30.550Z,14.83
2018-03-16T18:15:31.763Z,15.1
2018-03-16T18:21:32.519Z,14.43
2018-03-16T18:25:33.294Z,11.72
2018-03-16T18:27:34.137Z,12.84
2018-03-16T18:31:34.916Z,12.27
2018-03-16T18:37:35.808Z,12.55
2018-03-16T18:41:36.591Z,12.39
2018-03-16T18:47:37.346Z,13.49
2018-03-16T18:53:38.127Z,12.3
2018-03-16T18:57:39.613Z,11.75
2018-03-16T19:03:40.634Z,12.46
2018-03-16T19:07:41.364Z,10.1
2018-03-16T19:13:42.242Z,11.42
2018-03-16T19:19:43.117Z,9.94
2018-03-16T19:23:43.828Z,11.92
2018-03-16T19:29:44.680Z,10.05
2018-03-16T19:33:45.403Z,11.45
2018-03-16T19:39:46.251Z,9.53
2018-03-16T19:45:47.325Z,11.77
2018-03-16T19:49:48.186Z,18.74
2018-03-16T19:55:48.919Z,13.33
2018-03-16T19:59:49.743Z,12.55
2018-03-16T20:05:50.523Z,14.77
2018-03-16T20:11:51.731Z,14.67
2018-03-16T20:15:52.638Z,11.67
2018-03-16T20:21:53.376Z,11.15
2018-03-16T20:25:54.151Z,11.06
2018-03-16T20:31:55.063Z,14.22
2018-03-16T20:37:55.891Z,13.17
2018-03-16T20:41:56.669Z,15.48
2018-03-16T20:47:57.440Z,14.48
2018-03-16T20:51:58.319Z,16.49
2018-03-16T20:57:59.139Z,14.28
2018-03-16T21:03:59.899Z,13.32
2018-03-16T21:08:00.627Z,16.72
2018-03-16T21:14:01.542Z,15.55
2018-03-16T21:18:02.202Z,17.21
2018-03-16T21:24:02.919Z,15.99
2018-03-16T21:30:03.697Z,15.79
2018-03-16T21:34:04.460Z,13.28
2018-03-16T21:40:05.399Z,14.28
2018-03-16T21:44:06.120Z,13.08
2018-03-16T21:50:06.863Z,13.03
2018-03-16T21:56:07.669Z,12.83
2018-03-16T22:00:08.642Z,12.58
2018-03-16T22:06:09.649Z,12.73
2018-03-16T22:10:10.375Z,12.87
2018-03-16T22:16:11.074Z,11.93
2018-03-16T22:22:11.847Z,13.55
2018-03-16T22:26:12.641Z,11.99
2018-03-16T22:32:13.426Z,11.83
2018-03-16T22:36:14.157Z,11.67
2018-03-16T22:42:14.898Z,12.99
2018-03-16T22:48:15.666Z,13.04
2018-03-16T22:52:16.433Z,12.86
2018-03-16T22:58:17.189Z,11.46
2018-03-16T23:02:17.988Z,11.26
2018-03-16T23:08:18.786Z,10.74
2018-03-16T23:14:19.607Z,11.04
2018-03-16T23:18:20.402Z,10.39
2018-03-16T23:24:21.376Z,11
2018-03-16T23:28:22.069Z,11.19
2018-03-16T23:34:22.783Z,11.85
2018-03-16T23:40:23.559Z,13.14
2018-03-16T23:44:24.337Z,12.73
2018-03-16T23:50:25.201Z,10.15
2018-03-16T23:54:26.125Z,9.83
